Time;durP1;ratioP1;P1;durP2;ratioP2;P2;SDS_P1;SDS_P2;PMS_P1;PMS_P2;Temp;Humidity;BMP_temperature;BMP_pressure;BME280_temperature;BME280_humidity;BME280_pressure;Samples;Min_cycle;Max_cycle;Signal;HPM_P1;HPM_P2
2022/09/02 00:00:14;;;;;;;2.20;1.30;;;14.90;99.90;;;;;;4127646;28;20660;-77
2022/09/02 00:02:16;;;;;;;1.87;1.27;;;14.90;99.90;;;;;;4136446;28;20306;-77
2022/09/02 00:04:21;;;;;;;2.30;1.23;;;14.90;99.90;;;;;;4140335;28;20224;-77
2022/09/02 00:06:24;;;;;;;1.50;1.20;;;14.90;99.90;;;;;;4142729;28;20276;-78
2022/09/02 00:08:26;;;;;;;2.03;1.20;;;14.90;99.90;;;;;;4140174;28;20230;-77
2022/09/02 00:10:29;;;;;;;3.23;1.47;;;14.80;99.90;;;;;;4120689;28;20218;-77
2022/09/02 00:12:31;;;;;;;1.67;1.30;;;14.80;99.90;;;;;;4139227;28;20209;-77
2022/09/02 00:14:36;;;;;;;1.80;1.30;;;14.80;99.90;;;;;;4126032;28;20267;-77
2022/09/02 00:16:40;;;;;;;1.80;1.07;;;14.70;99.90;;;;;;4139677;28;20220;-77
2022/09/02 00:18:43;;;;;;;1.57;1.23;;;14.70;99.90;;;;;;4142576;28;20308;-77
2022/09/02 00:20:47;;;;;;;1.83;1.30;;;14.70;99.90;;;;;;4141806;28;20279;-77
2022/09/02 00:22:52;;;;;;;1.63;1.40;;;14.70;99.90;;;;;;4142436;28;20225;-78
2022/09/02 00:24:54;;;;;;;1.30;1.20;;;14.60;99.90;;;;;;4125541;28;20210;-78
2022/09/02 00:26:57;;;;;;;1.67;1.33;;;14.60;99.90;;;;;;4121078;28;20899;-77
2022/09/02 00:29:00;;;;;;;2.33;1.50;;;14.60;99.90;;;;;;4142987;28;20288;-77
2022/09/02 00:31:02;;;;;;;2.30;1.50;;;14.60;99.90;;;;;;4124765;28;20210;-77
2022/09/02 00:33:05;;;;;;;2.73;1.63;;;14.50;99.90;;;;;;4142522;28;20303;-77
2022/09/02 00:35:08;;;;;;;1.70;1.30;;;14.50;99.90;;;;;;4138057;28;20721;-78
2022/09/02 00:37:12;;;;;;;1.80;1.40;;;14.50;99.90;;;;;;4136727;28;20912;-78
2022/09/02 00:39:14;;;;;;;2.27;1.70;;;14.50;99.90;;;;;;4140884;28;20710;-78
2022/09/02 00:41:16;;;;;;;2.63;1.70;;;14.40;99.90;;;;;;4141715;28;20388;-77
2022/09/02 00:43:40;;;;;;;2.30;1.50;;;14.40;99.90;;;;;;4141051;28;20208;-77
2022/09/02 00:45:42;;;;;;;2.03;1.40;;;14.40;99.90;;;;;;4139715;28;20687;-77
2022/09/02 00:47:46;;;;;;;2.03;1.27;;;14.40;99.90;;;;;;4143054;28;20258;-77
2022/09/02 00:49:52;;;;;;;2.17;1.40;;;14.30;99.90;;;;;;4142070;28;20266;-77
2022/09/02 00:52:00;;;;;;;1.57;1.37;;;14.30;99.90;;;;;;4138688;28;20215;-77
2022/09/02 00:54:05;;;;;;;1.57;1.30;;;14.30;99.90;;;;;;4141886;28;20207;-78
2022/09/02 00:56:14;;;;;;;1.53;1.43;;;14.20;99.90;;;;;;4126329;28;20673;-77
2022/09/02 00:58:20;;;;;;;1.80;1.13;;;14.30;99.90;;;;;;4144624;28;20654;-77
2022/09/02 01:00:25;;;;;;;2.20;1.30;;;14.20;99.90;;;;;;4139872;28;20209;-78
2022/09/02 01:02:30;;;;;;;1.90;1.40;;;14.20;99.90;;;;;;4137052;28;20256;-78
2022/09/02 01:04:32;;;;;;;1.80;1.10;;;14.20;99.90;;;;;;4139014;28;20627;-78
2022/09/02 01:06:34;;;;;;;1.80;1.43;;;14.10;99.90;;;;;;4139024;28;20574;-78
2022/09/02 01:08:38;;;;;;;2.13;1.40;;;14.10;99.90;;;;;;4126677;28;20228;-78
2022/09/02 01:10:41;;;;;;;1.93;1.43;;;14.10;99.90;;;;;;4125470;28;20212;-78
2022/09/02 01:12:43;;;;;;;1.87;1.37;;;14.10;99.90;;;;;;4139153;28;20211;-78
2022/09/02 01:14:46;;;;;;;2.47;1.33;;;14.10;99.90;;;;;;4139975;28;20223;-78
2022/09/02 01:16:51;;;;;;;2.47;1.20;;;14.00;99.90;;;;;;4134465;28;20299;-77
2022/09/02 01:18:56;;;;;;;1.77;1.40;;;14.00;99.90;;;;;;4138870;28;20641;-77
2022/09/02 01:20:59;;;;;;;1.53;1.37;;;14.00;99.90;;;;;;4120148;28;20251;-77
2022/09/02 01:23:02;;;;;;;2.03;1.40;;;13.90;99.90;;;;;;4123344;28;20213;-78
2022/09/02 01:25:08;;;;;;;2.53;1.77;;;13.90;99.90;;;;;;4142552;28;20288;-77
2022/09/02 01:27:14;;;;;;;1.90;1.57;;;13.90;99.90;;;;;;4138446;28;20266;-78
2022/09/02 01:29:16;;;;;;;1.20;1.10;;;13.90;99.90;;;;;;4139688;28;20232;-77
2022/09/02 01:31:18;;;;;;;2.40;1.50;;;13.90;99.90;;;;;;4120996;28;20232;-78
2022/09/02 01:33:22;;;;;;;1.93;1.30;;;13.80;99.90;;;;;;4136446;28;20306;-77
2022/09/02 01:35:24;;;;;;;2.50;1.47;;;13.80;99.90;;;;;;4138151;28;20227;-77
2022/09/02 01:37:26;;;;;;;2.00;1.37;;;13.80;99.90;;;;;;4136490;28;20232;-78
2022/09/02 01:39:30;;;;;;;1.33;1.23;;;13.80;99.90;;;;;;4139837;28;20221;-77
2022/09/02 01:41:31;;;;;;;1.43;1.30;;;13.80;99.90;;;;;;4139668;28;20712;-78
2022/09/02 01:43:34;;;;;;;1.40;1.30;;;13.80;99.90;;;;;;4140172;28;20211;-78
2022/09/02 01:45:37;;;;;;;1.73;1.47;;;13.70;99.90;;;;;;4122328;28;20197;-77
2022/09/02 01:47:39;;;;;;;1.73;1.23;;;13.70;99.90;;;;;;4135102;28;20220;-78
2022/09/02 01:49:41;;;;;;;2.30;1.57;;;13.70;99.90;;;;;;4141526;28;20232;-78
2022/09/02 01:51:43;;;;;;;1.90;1.30;;;13.70;99.90;;;;;;4140611;28;20247;-78
2022/09/02 01:53:45;;;;;;;2.10;1.50;;;13.70;99.90;;;;;;4135529;28;20664;-77
2022/09/02 01:55:49;;;;;;;1.53;1.27;;;13.60;99.90;;;;;;4142538;28;20230;-78
2022/09/02 01:57:50;;;;;;;2.13;1.57;;;13.60;99.90;;;;;;4120568;28;20737;-78
2022/09/02 01:59:53;;;;;;;1.47;1.20;;;13.60;99.90;;;;;;4139810;28;20555;-77
2022/09/02 02:01:55;;;;;;;2.73;1.50;;;13.60;99.90;;;;;;4138770;28;20725;-77
2022/09/02 02:03:57;;;;;;;2.13;1.50;;;13.60;99.90;;;;;;4141563;28;20280;-78
2022/09/02 02:05:59;;;;;;;2.20;1.20;;;13.50;99.90;;;;;;4139538;28;20257;-77
2022/09/02 02:08:02;;;;;;;3.00;1.60;;;13.50;99.90;;;;;;4140501;28;20310;-78
2022/09/02 02:10:06;;;;;;;1.83;1.30;;;13.50;99.90;;;;;;4138727;28;20298;-77
2022/09/02 02:12:10;;;;;;;2.80;1.50;;;13.50;99.90;;;;;;4140409;28;20299;-77
2022/09/02 02:14:12;;;;;;;1.30;1.20;;;13.50;99.90;;;;;;4137803;28;20214;-78
2022/09/02 02:16:14;;;;;;;1.83;1.40;;;13.40;99.90;;;;;;4136984;28;20224;-78
2022/09/02 02:18:16;;;;;;;2.23;1.60;;;13.40;99.90;;;;;;4137161;28;20322;-77
2022/09/02 02:20:23;;;;;;;1.60;1.30;;;13.40;99.90;;;;;;4138045;28;20227;-78
2022/09/02 02:22:26;;;;;;;1.70;1.40;;;13.40;99.90;;;;;;4140148;28;20247;-78
2022/09/02 02:24:28;;;;;;;3.70;1.53;;;13.40;99.90;;;;;;4141417;28;20235;-77
2022/09/02 02:26:30;;;;;;;2.47;1.70;;;13.30;99.90;;;;;;4137747;28;20215;-78
2022/09/02 02:28:33;;;;;;;1.83;1.40;;;13.30;99.90;;;;;;4140257;28;20227;-78
2022/09/02 02:30:36;;;;;;;2.00;1.60;;;13.30;99.90;;;;;;4122152;28;20214;-77
2022/09/02 02:32:38;;;;;;;1.73;1.50;;;13.30;99.90;;;;;;4137039;28;20707;-77
2022/09/02 02:34:40;;;;;;;2.20;1.43;;;13.20;99.90;;;;;;4139554;28;20239;-77
2022/09/02 02:36:42;;;;;;;3.03;1.67;;;13.20;99.90;;;;;;4136719;28;20343;-77
2022/09/02 02:38:45;;;;;;;3.17;1.37;;;13.20;99.90;;;;;;4140649;28;20306;-77
2022/09/02 02:40:46;;;;;;;1.50;1.40;;;13.20;99.90;;;;;;4136656;28;20282;-77
2022/09/02 02:42:52;;;;;;;1.70;1.50;;;13.20;99.90;;;;;;4137679;28;20208;-78
2022/09/02 02:44:55;;;;;;;2.00;1.80;;;13.10;99.90;;;;;;4133899;28;20205;-77
2022/09/02 02:46:57;;;;;;;2.40;1.40;;;13.10;99.90;;;;;;4125516;28;20676;-78
2022/09/02 02:49:00;;;;;;;1.97;1.60;;;13.00;99.90;;;;;;4122912;28;20239;-77
2022/09/02 02:51:02;;;;;;;1.67;1.40;;;13.10;99.90;;;;;;4123569;28;20207;-78
2022/09/02 02:53:04;;;;;;;1.83;1.50;;;13.00;99.90;;;;;;4138423;28;20230;-77
2022/09/02 02:55:07;;;;;;;3.07;1.60;;;13.00;99.90;;;;;;4140740;28;20218;-77
2022/09/02 02:57:10;;;;;;;3.53;1.43;;;13.00;99.90;;;;;;4142078;28;20230;-78
2022/09/02 02:59:13;;;;;;;1.77;1.60;;;13.00;99.90;;;;;;4127822;28;20684;-77
2022/09/02 03:01:16;;;;;;;2.03;1.67;;;13.00;99.90;;;;;;4125527;28;20252;-77
2022/09/02 03:03:19;;;;;;;2.13;1.70;;;12.90;99.90;;;;;;4138424;28;20291;-78
2022/09/02 03:05:20;;;;;;;3.17;1.60;;;12.90;99.90;;;;;;4125343;28;20219;-77
2022/09/02 03:07:22;;;;;;;2.10;1.67;;;12.90;99.90;;;;;;4139047;28;20234;-77
2022/09/02 03:09:24;;;;;;;2.23;1.73;;;12.90;99.90;;;;;;4135667;28;20223;-77
2022/09/02 03:11:27;;;;;;;2.23;1.70;;;12.90;99.90;;;;;;4138141;28;20213;-77
2022/09/02 03:13:29;;;;;;;3.50;1.90;;;12.90;99.90;;;;;;4137721;28;20214;-78
2022/09/02 03:15:31;;;;;;;2.07;1.87;;;12.90;99.90;;;;;;4119960;28;20214;-77
2022/09/02 03:17:34;;;;;;;2.40;1.63;;;12.80;99.90;;;;;;4121608;28;20268;-77
2022/09/02 03:19:36;;;;;;;2.00;1.80;;;12.80;99.90;;;;;;4138382;28;20299;-78
2022/09/02 03:21:38;;;;;;;2.33;1.80;;;12.80;99.90;;;;;;4119630;28;20213;-78
2022/09/02 03:23:40;;;;;;;3.33;1.77;;;12.80;99.90;;;;;;4137130;28;20225;-77
2022/09/02 03:25:43;;;;;;;2.17;1.70;;;12.80;99.90;;;;;;4140897;28;20234;-77
2022/09/02 03:27:45;;;;;;;1.90;1.60;;;12.70;99.90;;;;;;4144290;28;20282;-77
2022/09/02 03:29:47;;;;;;;1.83;1.70;;;12.70;99.90;;;;;;4140398;28;20242;-78
2022/09/02 03:31:49;;;;;;;2.23;1.80;;;12.70;99.90;;;;;;4144754;28;20231;-78
2022/09/02 03:33:52;;;;;;;2.27;1.70;;;12.70;99.90;;;;;;4142286;28;20207;-77
2022/09/02 03:35:54;;;;;;;2.37;1.40;;;12.70;99.90;;;;;;4140599;28;20242;-78
2022/09/02 03:37:56;;;;;;;1.60;1.50;;;12.60;99.90;;;;;;4141481;28;20736;-78
2022/09/02 03:39:58;;;;;;;2.30;1.83;;;12.60;99.90;;;;;;4138249;28;20306;-77
2022/09/02 03:42:00;;;;;;;4.53;2.10;;;12.60;99.90;;;;;;4140791;28;20294;-78
2022/09/02 03:44:02;;;;;;;3.27;1.97;;;12.60;99.90;;;;;;4137743;28;20209;-78
2022/09/02 03:46:05;;;;;;;2.30;1.77;;;12.60;99.90;;;;;;4141635;28;20288;-77
2022/09/02 03:48:07;;;;;;;2.10;1.67;;;12.60;99.90;;;;;;4139778;28;20268;-78
2022/09/02 03:50:10;;;;;;;3.10;1.70;;;12.50;99.90;;;;;;4138492;28;20210;-77
2022/09/02 03:52:12;;;;;;;1.83;1.60;;;12.50;99.90;;;;;;4142442;28;20220;-77
2022/09/02 03:54:14;;;;;;;2.07;1.70;;;12.50;99.90;;;;;;4126330;28;20214;-78
2022/09/02 03:56:16;;;;;;;3.00;1.70;;;12.50;99.90;;;;;;4143900;28;20230;-77
2022/09/02 03:58:18;;;;;;;3.33;1.97;;;12.50;99.90;;;;;;4142338;28;20248;-77
2022/09/02 04:00:24;;;;;;;3.00;1.90;;;12.40;99.90;;;;;;4139387;28;20233;-77
2022/09/02 04:02:25;;;;;;;2.53;1.90;;;12.40;99.90;;;;;;4140820;28;20214;-78
2022/09/02 04:04:27;;;;;;;2.00;1.80;;;12.40;99.90;;;;;;4144923;28;20245;-78
2022/09/02 04:06:31;;;;;;;3.33;1.97;;;12.40;99.90;;;;;;4142244;28;20262;-78
2022/09/02 04:08:32;;;;;;;2.77;2.00;;;12.40;99.90;;;;;;4142014;28;20245;-77
2022/09/02 04:10:36;;;;;;;3.00;2.20;;;12.40;99.90;;;;;;4140524;28;20226;-77
2022/09/02 04:12:39;;;;;;;3.47;2.20;;;12.40;99.90;;;;;;4144146;28;20212;-78
2022/09/02 04:14:41;;;;;;;3.20;2.37;;;12.40;99.90;;;;;;4143400;28;20688;-77
2022/09/02 04:16:43;;;;;;;3.80;2.50;;;12.30;99.90;;;;;;4143373;28;20245;-77
2022/09/02 04:18:45;;;;;;;3.50;2.50;;;12.30;99.90;;;;;;4144853;28;20231;-77
2022/09/02 04:20:47;;;;;;;3.53;2.37;;;12.30;99.90;;;;;;4138150;28;20231;-78
2022/09/02 04:22:50;;;;;;;2.83;2.40;;;12.30;99.90;;;;;;4142619;28;20210;-78
2022/09/02 04:24:52;;;;;;;2.83;2.30;;;12.30;99.90;;;;;;4123407;28;20648;-78
2022/09/02 04:26:54;;;;;;;3.37;2.30;;;12.30;99.90;;;;;;4139382;28;20204;-78
2022/09/02 04:28:56;;;;;;;4.80;2.67;;;12.30;99.90;;;;;;4145574;28;20204;-78
2022/09/02 04:30:58;;;;;;;2.53;1.93;;;12.20;99.90;;;;;;4143284;28;20285;-77
2022/09/02 04:33:02;;;;;;;3.47;2.37;;;12.20;99.90;;;;;;4140949;28;20289;-78
2022/09/02 04:35:05;;;;;;;3.20;2.20;;;12.20;99.90;;;;;;4123050;28;20265;-77
2022/09/02 04:37:07;;;;;;;4.13;2.40;;;12.20;99.90;;;;;;4140393;28;20716;-78
2022/09/02 04:39:10;;;;;;;3.40;2.50;;;12.20;99.90;;;;;;4143037;28;20572;-77
2022/09/02 04:41:16;;;;;;;3.17;2.10;;;12.20;99.90;;;;;;4128206;28;20198;-77
2022/09/02 04:43:18;;;;;;;2.87;2.10;;;12.20;99.90;;;;;;4144269;28;20229;-77
2022/09/02 04:45:20;;;;;;;2.80;2.40;;;12.20;99.90;;;;;;4139640;28;20639;-76
2022/09/02 04:47:22;;;;;;;3.07;1.90;;;12.20;99.90;;;;;;4140931;28;20254;-77
2022/09/02 04:49:24;;;;;;;2.67;2.10;;;12.20;99.90;;;;;;4144843;28;20209;-77
2022/09/02 04:51:26;;;;;;;2.37;1.83;;;12.20;99.90;;;;;;4142147;28;20205;-77
2022/09/02 04:53:28;;;;;;;2.70;2.03;;;12.20;99.90;;;;;;4139279;28;20292;-77
2022/09/02 04:55:32;;;;;;;3.80;2.03;;;12.10;99.90;;;;;;4142730;28;20216;-77
2022/09/02 04:57:35;;;;;;;4.80;2.67;;;12.10;99.90;;;;;;4143979;28;20237;-77
2022/09/02 04:59:37;;;;;;;3.40;2.50;;;12.10;99.90;;;;;;4140203;28;20202;-77
2022/09/02 05:01:39;;;;;;;2.97;2.47;;;12.10;99.90;;;;;;4125199;28;20302;-77
2022/09/02 05:03:42;;;;;;;3.80;2.20;;;12.10;99.90;;;;;;4140752;28;20749;-78
2022/09/02 05:05:44;;;;;;;3.10;2.40;;;12.10;99.90;;;;;;4147051;28;20278;-77
2022/09/02 05:07:46;;;;;;;3.67;2.43;;;12.10;99.90;;;;;;4138071;28;20317;-77
2022/09/02 05:09:48;;;;;;;3.93;2.27;;;12.10;99.90;;;;;;4143011;28;20196;-77
2022/09/02 05:11:56;;;;;;;4.10;2.10;;;12.10;99.90;;;;;;4127683;28;20295;-77
2022/09/02 05:14:00;;;;;;;3.80;2.40;;;12.10;99.90;;;;;;4141987;28;20264;-76
2022/09/02 05:16:02;;;;;;;3.73;2.57;;;12.10;99.90;;;;;;4142114;28;20204;-77
2022/09/02 05:18:04;;;;;;;3.50;2.27;;;12.10;99.90;;;;;;4143857;28;20675;-76
2022/09/02 05:20:09;;;;;;;2.90;2.40;;;12.10;99.90;;;;;;4142229;28;20568;-76
2022/09/02 05:22:10;;;;;;;4.27;2.90;;;12.10;99.90;;;;;;4142093;28;20276;-77
2022/09/02 05:24:13;;;;;;;4.13;2.57;;;12.10;99.90;;;;;;4128226;28;20634;-77
2022/09/02 05:26:15;;;;;;;4.13;2.90;;;12.10;99.90;;;;;;4138258;28;20210;-77
2022/09/02 05:28:18;;;;;;;3.73;2.70;;;12.20;99.90;;;;;;4124024;28;20286;-77
2022/09/02 05:30:20;;;;;;;4.63;2.93;;;12.10;99.90;;;;;;4127324;28;20305;-76
2022/09/02 05:32:23;;;;;;;4.00;2.50;;;12.10;99.90;;;;;;4142322;28;20263;-76
2022/09/02 05:34:24;;;;;;;4.63;2.70;;;12.10;99.90;;;;;;4120979;28;20203;-75
2022/09/02 05:36:27;;;;;;;3.17;2.50;;;12.20;99.90;;;;;;4127890;28;20222;-76
2022/09/02 05:38:29;;;;;;;3.10;2.60;;;12.00;99.90;;;;;;4139005;28;20221;-76
2022/09/02 05:40:33;;;;;;;3.53;2.53;;;12.20;99.90;;;;;;4141978;28;20249;-77
2022/09/02 05:42:35;;;;;;;4.13;2.43;;;12.20;99.90;;;;;;4126435;28;20201;-76
2022/09/02 05:44:39;;;;;;;3.30;2.43;;;12.20;99.90;;;;;;4143716;28;20202;-77
2022/09/02 05:46:41;;;;;;;4.33;2.43;;;12.20;99.90;;;;;;4137672;28;20252;-78
2022/09/02 05:51:04;;;;;;;6.53;2.40;;;12.00;99.90;;;;;;4139505;28;20204;-77
2022/09/02 05:53:06;;;;;;;5.53;2.67;;;12.20;99.90;;;;;;4133222;28;20222;-79
2022/09/02 05:55:09;;;;;;;3.87;2.30;;;12.20;99.90;;;;;;4127529;28;20697;-77
2022/09/02 05:57:14;;;;;;;3.60;2.00;;;12.20;99.90;;;;;;4129066;28;20321;-78
2022/09/02 05:59:17;;;;;;;4.07;2.67;;;12.30;99.90;;;;;;4139658;28;20246;-78
2022/09/02 06:01:20;;;;;;;3.90;2.10;;;12.30;99.90;;;;;;4138837;28;20585;-77
2022/09/02 06:03:22;;;;;;;3.03;2.33;;;12.30;99.90;;;;;;4140695;28;20305;-77
2022/09/02 06:05:24;;;;;;;3.20;2.50;;;12.30;99.90;;;;;;4139343;28;20208;-77
2022/09/02 06:07:26;;;;;;;2.93;2.43;;;12.30;99.90;;;;;;4137248;28;20235;-77
2022/09/02 06:09:28;;;;;;;3.63;2.40;;;12.40;99.90;;;;;;4122028;28;20235;-77
2022/09/02 06:11:30;;;;;;;3.93;2.50;;;12.40;99.90;;;;;;4140115;28;20268;-77
2022/09/02 06:13:35;;;;;;;2.97;2.43;;;12.40;99.90;;;;;;4131694;28;20207;-77
2022/09/02 06:15:42;;;;;;;3.20;2.33;;;12.40;99.90;;;;;;4140941;28;20286;-77
2022/09/02 06:17:46;;;;;;;3.60;2.40;;;12.50;99.90;;;;;;4121414;28;20299;-77
2022/09/02 06:19:48;;;;;;;5.17;2.80;;;12.50;99.90;;;;;;4140056;28;20247;-77
2022/09/02 06:21:50;;;;;;;2.47;2.00;;;12.50;99.90;;;;;;4139148;28;20206;-77
2022/09/02 06:23:52;;;;;;;2.70;2.27;;;12.50;99.90;;;;;;4136623;28;20245;-78
2022/09/02 06:25:54;;;;;;;3.37;2.40;;;12.60;99.90;;;;;;4120130;28;20306;-80
2022/09/02 06:27:56;;;;;;;2.97;2.30;;;12.50;99.90;;;;;;4120570;28;20318;-78
2022/09/02 06:29:58;;;;;;;2.33;2.00;;;12.60;99.90;;;;;;4143040;28;20294;-78
2022/09/02 06:31:59;;;;;;;3.03;2.20;;;12.70;99.90;;;;;;4129240;28;20238;-79
2022/09/02 06:34:03;;;;;;;3.87;2.33;;;12.70;99.90;;;;;;4137917;28;20281;-78
2022/09/02 06:36:07;;;;;;;3.00;2.00;;;12.70;99.90;;;;;;4134672;28;20704;-78
2022/09/02 06:38:11;;;;;;;2.60;1.87;;;12.70;99.90;;;;;;4138950;28;20771;-79
2022/09/02 06:40:13;;;;;;;3.40;2.20;;;12.80;99.90;;;;;;4137796;28;20711;-78
2022/09/02 06:42:15;;;;;;;3.87;2.17;;;12.80;99.90;;;;;;4141940;28;20691;-79
2022/09/02 06:44:20;;;;;;;2.90;1.80;;;12.90;99.90;;;;;;4136255;28;20287;-78
2022/09/02 06:46:27;;;;;;;2.27;1.80;;;13.00;99.90;;;;;;4138711;28;20210;-78
2022/09/02 06:48:29;;;;;;;2.30;1.80;;;13.00;99.90;;;;;;4135531;28;20739;-78
2022/09/02 06:50:33;;;;;;;2.20;1.70;;;13.10;99.90;;;;;;4141718;28;20215;-78
2022/09/02 06:52:35;;;;;;;2.70;2.00;;;13.10;99.90;;;;;;4140757;28;20314;-79
2022/09/02 06:54:37;;;;;;;3.07;1.73;;;13.20;99.90;;;;;;4138513;28;20203;-77
2022/09/02 06:56:39;;;;;;;2.37;1.70;;;13.30;99.90;;;;;;4140570;28;20692;-78
2022/09/02 06:58:41;;;;;;;2.60;1.90;;;13.40;99.90;;;;;;4134319;28;20254;-79
2022/09/02 07:00:43;;;;;;;2.50;1.90;;;13.40;99.90;;;;;;4129617;28;20306;-78
2022/09/02 07:05:08;;;;;;;2.10;1.57;;;13.50;99.90;;;;;;4138746;28;20202;-78
2022/09/02 07:05:10;;;;;;;3.13;2.00;;;13.60;99.90;;;;;;4140908;28;20212;-77
2022/09/02 07:07:13;;;;;;;2.30;1.70;;;13.70;99.90;;;;;;4143067;28;20788;-78
2022/09/02 07:09:22;;;;;;;2.47;1.53;;;13.80;99.90;;;;;;4144725;28;20300;-78
2022/09/02 07:11:24;;;;;;;1.80;1.40;;;13.90;99.90;;;;;;4144931;28;20269;-77
2022/09/02 07:13:26;;;;;;;2.37;1.70;;;14.00;99.90;;;;;;4149640;28;20218;-77
2022/09/02 07:15:28;;;;;;;3.23;1.80;;;14.10;99.90;;;;;;4147328;28;20211;-77
2022/09/02 07:19:38;;;;;;;1.70;1.23;;;14.20;99.90;;;;;;4155559;28;20219;-78
2022/09/02 07:21:41;;;;;;;2.30;1.60;;;14.30;99.90;;;;;;4157023;28;20225;-78
2022/09/02 07:23:44;;;;;;;2.57;1.70;;;14.40;99.90;;;;;;4159357;28;20290;-78
2022/09/02 07:25:46;;;;;;;1.60;1.50;;;14.50;99.90;;;;;;4156637;28;20568;-80
2022/09/02 07:27:50;;;;;;;1.77;1.40;;;14.60;99.90;;;;;;4158103;28;20302;-78
2022/09/02 07:29:52;;;;;;;3.33;1.33;;;14.70;99.90;;;;;;4146624;28;20740;-78
2022/09/02 07:31:54;;;;;;;5.17;1.40;;;14.80;99.90;;;;;;4158522;28;20231;-77
2022/09/02 07:33:57;;;;;;;2.33;1.40;;;14.80;99.90;;;;;;4141680;28;20211;-79
2022/09/02 07:35:59;;;;;;;3.73;1.60;;;14.90;99.90;;;;;;4144442;28;20303;-78
2022/09/02 07:38:03;;;;;;;2.40;1.50;;;15.00;99.90;;;;;;4157116;28;20242;-78
2022/09/02 07:40:09;;;;;;;4.20;1.50;;;15.10;99.90;;;;;;4154527;28;20251;-79
2022/09/02 07:42:11;;;;;;;1.53;1.30;;;15.20;99.90;;;;;;4139003;28;20212;-80
2022/09/02 07:44:14;;;;;;;1.40;1.20;;;15.20;99.90;;;;;;4153744;28;20634;-78
2022/09/02 07:46:16;;;;;;;1.80;1.10;;;15.30;99.90;;;;;;4138276;28;20301;-78
2022/09/02 07:48:18;;;;;;;2.20;1.20;;;15.40;99.90;;;;;;4142627;28;20743;-78
2022/09/02 07:50:20;;;;;;;1.20;1.10;;;15.40;99.90;;;;;;4142309;28;20300;-77
2022/09/02 07:52:22;;;;;;;2.27;1.20;;;15.50;99.90;;;;;;4143022;28;20209;-77
2022/09/02 07:54:25;;;;;;;1.20;1.00;;;15.60;99.90;;;;;;4161314;28;20266;-77
2022/09/02 07:56:29;;;;;;;2.47;1.27;;;15.70;99.90;;;;;;4156606;28;20213;-77
2022/09/02 07:58:31;;;;;;;2.70;0.73;;;15.70;99.90;;;;;;4158015;28;20667;-79
2022/09/02 08:00:33;;;;;;;1.63;1.10;;;15.80;99.90;;;;;;4140316;28;20222;-77
2022/09/02 08:02:35;;;;;;;1.87;1.33;;;15.90;99.90;;;;;;4154315;28;20302;-78
2022/09/02 08:04:37;;;;;;;1.63;1.10;;;15.90;99.90;;;;;;4162880;28;20206;-77
2022/09/02 08:06:39;;;;;;;2.27;1.30;;;16.00;99.90;;;;;;4141557;28;20337;-77
2022/09/02 08:08:42;;;;;;;1.87;1.00;;;16.10;99.90;;;;;;4143901;28;20573;-78
2022/09/02 08:10:44;;;;;;;1.37;0.90;;;16.10;99.90;;;;;;4139733;28;20301;-79
2022/09/02 08:12:50;;;;;;;1.30;0.90;;;16.20;99.90;;;;;;4162027;28;20227;-78
2022/09/02 08:14:52;;;;;;;1.53;1.03;;;16.20;99.90;;;;;;4135222;28;20302;-79
2022/09/02 08:16:55;;;;;;;1.87;1.00;;;16.30;99.90;;;;;;4161264;28;20209;-79
2022/09/02 08:18:57;;;;;;;1.80;0.90;;;16.40;99.90;;;;;;4156003;28;20239;-77
2022/09/02 08:21:00;;;;;;;1.40;1.20;;;16.50;99.90;;;;;;4138585;28;20560;-77
2022/09/02 08:23:05;;;;;;;1.33;1.10;;;16.60;99.90;;;;;;4144174;28;20242;-78
2022/09/02 08:25:07;;;;;;;1.83;1.10;;;16.70;99.90;;;;;;4137600;28;20310;-77
2022/09/02 08:27:10;;;;;;;1.33;0.80;;;16.70;99.90;;;;;;4136356;28;20219;-77
2022/09/02 08:29:14;;;;;;;1.40;0.97;;;16.80;99.90;;;;;;4158574;28;20254;-77
2022/09/02 08:31:17;;;;;;;2.57;1.10;;;16.90;99.90;;;;;;4152268;28;20210;-78
2022/09/02 08:33:19;;;;;;;2.40;0.87;;;16.90;99.90;;;;;;4170536;28;20276;-80
2022/09/02 08:35:21;;;;;;;1.73;1.00;;;17.00;99.90;;;;;;4161764;28;20307;-78
2022/09/02 08:37:23;;;;;;;1.50;0.80;;;17.10;99.90;;;;;;4179885;28;20215;-79
2022/09/02 08:39:25;;;;;;;1.33;1.00;;;17.20;99.40;;;;;;4161705;28;20236;-79
2022/09/02 08:41:32;;;;;;;1.60;0.80;;;17.30;98.20;;;;;;4183785;28;20225;-81
2022/09/02 08:43:39;;;;;;;2.77;0.97;;;17.30;98.10;;;;;;4159919;28;20221;-77
2022/09/02 08:45:45;;;;;;;1.37;0.80;;;17.40;97.60;;;;;;4172735;28;20210;-77
2022/09/02 08:47:51;;;;;;;1.10;0.63;;;17.50;97.20;;;;;;4161618;28;20285;-77
2022/09/02 08:49:57;;;;;;;1.53;0.90;;;17.50;96.60;;;;;;4159314;28;20294;-79
2022/09/02 08:52:02;;;;;;;1.23;0.80;;;17.60;95.20;;;;;;4159209;28;20207;-78
2022/09/02 08:54:07;;;;;;;1.60;1.00;;;17.70;94.80;;;;;;4138619;28;20257;-78
2022/09/02 08:56:11;;;;;;;0.97;0.67;;;17.70;94.50;;;;;;4141026;28;20626;-78
2022/09/02 08:58:18;;;;;;;1.93;0.90;;;17.80;87.80;;;;;;4155709;28;20239;-80
2022/09/02 09:00:20;;;;;;;1.27;0.90;;;17.80;90.40;;;;;;4155688;28;20592;-79
2022/09/02 09:02:31;;;;;;;1.43;0.90;;;17.90;88.90;;;;;;4156030;28;20227;-77
2022/09/02 09:04:55;;;;;;;1.50;1.00;;;18.00;86.70;;;;;;4161755;28;20249;-77
2022/09/02 09:07:12;;;;;;;2.10;0.90;;;18.10;85.30;;;;;;4139401;28;20205;-79
2022/09/02 09:09:21;;;;;;;1.20;0.70;;;18.20;82.10;;;;;;4145839;28;20231;-79
2022/09/02 09:11:30;;;;;;;0.80;0.70;;;18.30;79.10;;;;;;4162841;28;20215;-79
2022/09/02 09:13:59;;;;;;;0.87;0.73;;;18.30;77.80;;;;;;4145210;28;20268;-78
2022/09/02 09:16:09;;;;;;;1.50;1.00;;;18.40;77.20;;;;;;4136811;28;20217;-77
2022/09/02 09:18:17;;;;;;;1.10;0.77;;;18.50;77.30;;;;;;4162252;28;20251;-78
2022/09/02 09:20:21;;;;;;;1.00;0.80;;;18.60;76.60;;;;;;4140270;28;20212;-79
2022/09/02 09:22:29;;;;;;;2.07;0.90;;;18.60;76.40;;;;;;4143087;28;20252;-77
2022/09/02 09:24:36;;;;;;;0.70;0.70;;;18.70;74.70;;;;;;4158101;28;20207;-77
2022/09/02 09:26:40;;;;;;;1.60;0.73;;;18.80;73.80;;;;;;4159275;28;20224;-78
2022/09/02 09:28:43;;;;;;;1.47;1.00;;;18.90;71.20;;;;;;4145159;28;20236;-78
2022/09/02 09:30:45;;;;;;;1.37;0.90;;;18.90;71.60;;;;;;4158897;28;20272;-81
2022/09/02 09:32:53;;;;;;;2.83;0.70;;;19.00;69.60;;;;;;4138109;28;20284;-77
2022/09/02 09:35:00;;;;;;;1.10;0.70;;;19.10;68.30;;;;;;4155259;28;20243;-79
2022/09/02 09:37:02;;;;;;;0.63;0.60;;;19.20;65.00;;;;;;4157979;28;20283;-77
2022/09/02 09:39:17;;;;;;;2.20;0.60;;;19.20;64.30;;;;;;4158924;28;20226;-78
2022/09/02 09:41:23;;;;;;;0.73;0.63;;;19.30;64.50;;;;;;4140068;28;20289;-79
2022/09/02 09:43:33;;;;;;;0.93;0.73;;;19.40;64.40;;;;;;4249049;27;20656;-78
2022/09/02 09:45:37;;;;;;;1.37;0.80;;;19.40;64.60;;;;;;4231543;28;20203;-80
2022/09/02 09:47:39;;;;;;;1.70;0.70;;;19.50;63.90;;;;;;4237941;27;20225;-77
2022/09/02 09:49:41;;;;;;;1.10;0.80;;;19.60;59.20;;;;;;4220301;28;20277;-80
2022/09/02 09:51:55;;;;;;;0.93;0.70;;;19.70;60.40;;;;;;4219479;28;20635;-78
2022/09/02 09:54:15;;;;;;;2.07;0.80;;;19.70;59.30;;;;;;4220572;28;20207;-78
2022/09/02 09:56:31;;;;;;;0.80;0.80;;;19.80;58.80;;;;;;4216866;28;20209;-78
2022/09/02 09:58:42;;;;;;;1.03;0.80;;;19.90;58.80;;;;;;4214610;28;20236;-78
2022/09/02 10:00:44;;;;;;;1.10;0.60;;;19.90;58.20;;;;;;4221237;28;20655;-79
2022/09/02 10:02:48;;;;;;;1.33;0.87;;;20.00;56.50;;;;;;4220035;28;20711;-80
2022/09/02 10:04:51;;;;;;;1.57;0.70;;;20.20;54.90;;;;;;4218581;28;20725;-77
2022/09/02 10:06:53;;;;;;;0.87;0.80;;;20.20;54.30;;;;;;4213041;28;20198;-78
2022/09/02 10:08:57;;;;;;;1.00;0.70;;;20.30;53.60;;;;;;4209854;28;20594;-79
2022/09/02 10:11:02;;;;;;;1.07;0.60;;;20.40;53.20;;;;;;4222584;28;20217;-80
2022/09/02 10:13:21;;;;;;;1.20;0.90;;;20.50;52.10;;;;;;4226425;28;20233;-78
2022/09/02 10:15:37;;;;;;;0.90;0.70;;;20.50;51.80;;;;;;4226233;28;20709;-78
2022/09/02 10:17:47;;;;;;;2.10;0.90;;;20.60;50.90;;;;;;4223793;28;20215;-78
2022/09/02 10:19:55;;;;;;;1.27;0.67;;;20.70;50.80;;;;;;4227079;28;20302;-79
2022/09/02 10:22:19;;;;;;;1.17;0.80;;;20.80;50.00;;;;;;4233649;28;20295;-78
2022/09/02 10:24:35;;;;;;;1.17;0.80;;;20.80;50.30;;;;;;4216930;28;20759;-79
2022/09/02 10:26:42;;;;;;;2.83;0.70;;;20.90;49.20;;;;;;4244672;28;20503;-79
2022/09/02 10:29:13;;;;;;;0.93;0.60;;;21.00;48.40;;;;;;4222020;28;20252;-76
2022/09/02 10:31:23;;;;;;;0.77;0.60;;;21.10;48.10;;;;;;4217537;28;20228;-79
2022/09/02 10:33:36;;;;;;;1.00;0.53;;;21.20;47.60;;;;;;4226792;28;20196;-78
2022/09/02 10:35:42;;;;;;;0.80;0.80;;;21.30;48.00;;;;;;4227322;28;20201;-78
2022/09/02 10:38:00;;;;;;;0.77;0.53;;;21.40;47.40;;;;;;4246190;28;20201;-79
2022/09/02 10:40:12;;;;;;;1.83;0.70;;;21.50;47.20;;;;;;4225816;28;20228;-79
2022/09/02 10:42:21;;;;;;;0.60;0.60;;;21.60;47.00;;;;;;4215409;28;20224;-78
2022/09/02 10:44:31;;;;;;;0.50;0.50;;;21.70;47.00;;;;;;4220286;28;20200;-78
2022/09/02 10:46:44;;;;;;;1.93;0.50;;;21.80;46.70;;;;;;4222541;28;20228;-77
2022/09/02 10:49:01;;;;;;;1.40;0.60;;;21.90;45.80;;;;;;4214498;28;20245;-78
2022/09/02 10:51:08;;;;;;;1.50;0.70;;;22.00;45.40;;;;;;4219169;28;20304;-78